sensor_id;sensor_type;location;lat;lon;timestamp;pressure;altitude;pressure_sealevel;temperature;humidity
9325;BME280;4701;51.566;6.776;2023-05-01T07:03:39;101161.28;;;11.05;78.06
9325;BME280;4701;51.566;6.776;2023-05-01T07:06:40;101164.88;;;11.16;78.24
9325;BME280;4701;51.566;6.776;2023-05-01T07:09:42;101150.50;;;11.25;78.88
9325;BME280;4701;51.566;6.776;2023-05-01T07:12:44;101150.34;;;11.37;78.51
9325;BME280;4701;51.566;6.776;2023-05-01T07:15:46;101152.41;;;11.62;76.05
9325;BME280;4701;51.566;6.776;2023-05-01T07:18:50;101149.50;;;11.73;76.09
9325;BME280;4701;51.566;6.776;2023-05-01T07:21:52;101148.19;;;11.81;75.98
9325;BME280;4701;51.566;6.776;2023-05-01T07:24:54;101147.44;;;11.91;75.57
9325;BME280;4701;51.566;6.776;2023-05-01T07:27:56;101148.53;;;12.00;75.33
9325;BME280;4701;51.566;6.776;2023-05-01T07:31:00;101155.16;;;12.09;75.14
9325;BME280;4701;51.566;6.776;2023-05-01T07:34:03;101156.28;;;12.18;74.43
9325;BME280;4701;51.566;6.776;2023-05-01T07:37:05;101149.22;;;12.27;74.33
9325;BME280;4701;51.566;6.776;2023-05-01T07:40:07;101145.97;;;12.35;73.64
9325;BME280;4701;51.566;6.776;2023-05-01T07:43:09;101148.16;;;12.43;73.03
9325;BME280;4701;51.566;6.776;2023-05-01T07:46:11;101135.88;;;12.51;72.92
9325;BME280;4701;51.566;6.776;2023-05-01T07:49:14;101143.28;;;12.61;72.52
9325;BME280;4701;51.566;6.776;2023-05-01T07:52:16;101140.31;;;12.67;72.33
9325;BME280;4701;51.566;6.776;2023-05-01T07:55:20;101140.59;;;12.76;72.07
9325;BME280;4701;51.566;6.776;2023-05-01T07:58:42;101134.59;;;12.84;72.03
9325;BME280;4701;51.566;6.776;2023-05-01T08:01:46;101138.41;;;12.93;71.73
9325;BME280;4701;51.566;6.776;2023-05-01T08:04:50;101133.50;;;13.00;71.26
9325;BME280;4701;51.566;6.776;2023-05-01T08:07:52;101138.44;;;13.08;71.43
9325;BME280;4701;51.566;6.776;2023-05-01T08:10:58;101136.00;;;13.17;71.19
9325;BME280;4701;51.566;6.776;2023-05-01T08:14:00;101134.06;;;13.22;70.57
9325;BME280;4701;51.566;6.776;2023-05-01T08:17:03;101140.38;;;13.33;70.04
9325;BME280;4701;51.566;6.776;2023-05-01T08:20:07;101137.06;;;13.41;69.58
9325;BME280;4701;51.566;6.776;2023-05-01T08:23:09;101129.41;;;13.48;69.67
9325;BME280;4701;51.566;6.776;2023-05-01T08:26:18;101138.97;;;13.56;68.83
9325;BME280;4701;51.566;6.776;2023-05-01T08:29:24;101128.81;;;13.61;68.66
9325;BME280;4701;51.566;6.776;2023-05-01T08:32:28;101130.19;;;13.69;68.33
9325;BME280;4701;51.566;6.776;2023-05-01T08:35:34;101135.09;;;13.77;68.10
9325;BME280;4701;51.566;6.776;2023-05-01T08:38:38;101129.31;;;13.84;68.57
9325;BME280;4701;51.566;6.776;2023-05-01T08:41:44;101129.84;;;13.91;68.10
9325;BME280;4701;51.566;6.776;2023-05-01T08:44:52;101130.34;;;13.98;67.65
9325;BME280;4701;51.566;6.776;2023-05-01T08:47:58;101123.47;;;14.06;67.30
9325;BME280;4701;51.566;6.776;2023-05-01T08:51:03;101127.03;;;14.11;67.30
9325;BME280;4701;51.566;6.776;2023-05-01T08:54:06;101129.47;;;14.18;66.70
9325;BME280;4701;51.566;6.776;2023-05-01T08:57:11;101123.13;;;14.27;66.68
9325;BME280;4701;51.566;6.776;2023-05-01T09:00:16;101117.31;;;14.34;66.59
9325;BME280;4701;51.566;6.776;2023-05-01T09:03:20;101126.91;;;14.42;66.82
9325;BME280;4701;51.566;6.776;2023-05-01T09:06:24;101122.72;;;14.49;66.51
9325;BME280;4701;51.566;6.776;2023-05-01T09:09:28;101121.31;;;14.57;66.34
9325;BME280;4701;51.566;6.776;2023-05-01T09:12:30;101126.47;;;14.63;66.43
9325;BME280;4701;51.566;6.776;2023-05-01T09:15:35;101121.78;;;14.69;65.76
9325;BME280;4701;51.566;6.776;2023-05-01T09:18:37;101114.34;;;14.74;65.21
9325;BME280;4701;51.566;6.776;2023-05-01T09:21:41;101125.00;;;14.81;65.00
9325;BME280;4701;51.566;6.776;2023-05-01T09:24:58;101119.19;;;14.88;64.25
9325;BME280;4701;51.566;6.776;2023-05-01T09:28:10;101115.31;;;14.94;64.54
9325;BME280;4701;51.566;6.776;2023-05-01T09:31:47;101125.13;;;15.00;64.95
9325;BME280;4701;51.566;6.776;2023-05-01T10:15:47;101106.25;;;15.80;63.21
9325;BME280;4701;51.566;6.776;2023-05-01T10:18:49;101105.06;;;15.86;63.17
9325;BME280;4701;51.566;6.776;2023-05-01T10:21:52;101101.47;;;15.91;63.24
9325;BME280;4701;51.566;6.776;2023-05-01T10:24:54;101109.06;;;15.99;63.10
9325;BME280;4701;51.566;6.776;2023-05-01T10:27:56;101107.88;;;16.05;63.34
9325;BME280;4701;51.566;6.776;2023-05-01T10:31:00;101103.94;;;16.11;62.94
9325;BME280;4701;51.566;6.776;2023-05-01T10:34:03;101096.44;;;16.16;63.28
9325;BME280;4701;51.566;6.776;2023-05-01T10:37:10;101095.28;;;16.22;63.58
9325;BME280;4701;51.566;6.776;2023-05-01T10:40:45;101088.00;;;16.32;62.71
9325;BME280;4701;51.566;6.776;2023-05-01T10:47:46;101097.44;;;16.44;61.35
9325;BME280;4701;51.566;6.776;2023-05-01T10:51:07;101092.69;;;16.50;61.85
9325;BME280;4701;51.566;6.776;2023-05-01T10:54:23;101086.53;;;16.58;61.56
9325;BME280;4701;51.566;6.776;2023-05-01T10:57:40;101084.53;;;16.63;61.77
9325;BME280;4701;51.566;6.776;2023-05-01T11:00:43;101075.34;;;16.68;61.27
9325;BME280;4701;51.566;6.776;2023-05-01T11:03:46;101073.38;;;16.74;60.52
9325;BME280;4701;51.566;6.776;2023-05-01T11:07:15;101076.84;;;16.79;59.83
9325;BME280;4701;51.566;6.776;2023-05-01T11:10:24;101075.13;;;16.83;59.96
9325;BME280;4701;51.566;6.776;2023-05-01T11:13:54;101074.75;;;16.90;60.30
9325;BME280;4701;51.566;6.776;2023-05-01T11:16:56;101068.03;;;16.96;60.83
9325;BME280;4701;51.566;6.776;2023-05-01T11:19:59;101070.38;;;17.02;59.96
9325;BME280;4701;51.566;6.776;2023-05-01T11:23:01;101063.16;;;17.07;59.18
9325;BME280;4701;51.566;6.776;2023-05-01T11:26:03;101063.38;;;17.10;59.94
9325;BME280;4701;51.566;6.776;2023-05-01T11:29:08;101062.47;;;17.15;59.19
9325;BME280;4701;51.566;6.776;2023-05-01T11:32:15;101062.91;;;17.22;59.37
9325;BME280;4701;51.566;6.776;2023-05-01T11:35:23;101060.38;;;17.25;59.31
9325;BME280;4701;51.566;6.776;2023-05-01T11:38:25;101062.72;;;17.32;59.52
9325;BME280;4701;51.566;6.776;2023-05-01T11:41:27;101048.00;;;17.36;58.81
9325;BME280;4701;51.566;6.776;2023-05-01T11:44:29;101060.59;;;17.43;58.99
9325;BME280;4701;51.566;6.776;2023-05-01T11:47:31;101062.94;;;17.49;57.98
9325;BME280;4701;51.566;6.776;2023-05-01T11:50:35;101063.94;;;17.53;57.54
9325;BME280;4701;51.566;6.776;2023-05-01T11:53:37;101051.50;;;17.56;56.04
9325;BME280;4701;51.566;6.776;2023-05-01T11:56:39;101049.78;;;17.60;55.92
9325;BME280;4701;51.566;6.776;2023-05-01T11:59:45;101036.22;;;17.63;55.52
9325;BME280;4701;51.566;6.776;2023-05-01T12:02:57;101049.91;;;17.68;55.95
9325;BME280;4701;51.566;6.776;2023-05-01T12:06:02;101048.69;;;17.74;56.27
9325;BME280;4701;51.566;6.776;2023-05-01T12:09:05;101044.38;;;17.82;56.44
9325;BME280;4701;51.566;6.776;2023-05-01T12:12:07;101049.47;;;17.89;57.08
9325;BME280;4701;51.566;6.776;2023-05-01T12:15:10;101046.81;;;17.97;57.06
9325;BME280;4701;51.566;6.776;2023-05-01T12:18:12;101044.97;;;18.06;55.76
9325;BME280;4701;51.566;6.776;2023-05-01T12:21:16;101043.94;;;18.16;54.99
9325;BME280;4701;51.566;6.776;2023-05-01T12:24:18;101044.31;;;18.23;54.28
9325;BME280;4701;51.566;6.776;2023-05-01T12:27:20;101041.13;;;18.30;54.54
9325;BME280;4701;51.566;6.776;2023-05-01T12:30:26;101033.75;;;18.39;54.01
9325;BME280;4701;51.566;6.776;2023-05-01T12:33:29;101033.81;;;18.47;53.70
9325;BME280;4701;51.566;6.776;2023-05-01T12:36:34;101039.13;;;18.58;54.10
9325;BME280;4701;51.566;6.776;2023-05-01T12:39:37;101030.91;;;18.66;53.95
9325;BME280;4701;51.566;6.776;2023-05-01T12:42:41;101022.19;;;18.73;54.02
9325;BME280;4701;51.566;6.776;2023-05-01T12:45:43;101024.81;;;18.78;53.54
9325;BME280;4701;51.566;6.776;2023-05-01T12:48:45;101022.22;;;18.81;53.67
9325;BME280;4701;51.566;6.776;2023-05-01T12:51:51;101026.84;;;18.86;52.61
9325;BME280;4701;51.566;6.776;2023-05-01T12:55:01;101017.06;;;18.88;53.55
9325;BME280;4701;51.566;6.776;2023-05-01T12:58:04;101019.22;;;18.92;54.06
9325;BME280;4701;51.566;6.776;2023-05-01T13:01:06;101013.88;;;18.95;53.57
9325;BME280;4701;51.566;6.776;2023-05-01T13:04:08;101012.75;;;18.96;53.41
9325;BME280;4701;51.566;6.776;2023-05-01T13:07:12;101014.72;;;18.96;51.75
9325;BME280;4701;51.566;6.776;2023-05-01T13:10:28;101007.03;;;18.93;51.74
9325;BME280;4701;51.566;6.776;2023-05-01T13:13:34;101018.41;;;18.91;51.38
9325;BME280;4701;51.566;6.776;2023-05-01T13:16:43;101015.78;;;18.86;50.80
9325;BME280;4701;51.566;6.776;2023-05-01T13:19:52;101019.78;;;18.80;51.31
9325;BME280;4701;51.566;6.776;2023-05-01T13:22:56;101024.31;;;18.76;51.45
9325;BME280;4701;51.566;6.776;2023-05-01T13:25:58;101017.78;;;18.72;51.58
9325;BME280;4701;51.566;6.776;2023-05-01T13:29:02;101016.28;;;18.66;51.92
9325;BME280;4701;51.566;6.776;2023-05-01T13:32:05;101016.94;;;18.63;53.15
9325;BME280;4701;51.566;6.776;2023-05-01T13:35:10;101011.22;;;18.59;52.42
9325;BME280;4701;51.566;6.776;2023-05-01T13:38:14;101018.97;;;18.57;52.94
9325;BME280;4701;51.566;6.776;2023-05-01T13:41:23;101026.25;;;18.53;53.02
9325;BME280;4701;51.566;6.776;2023-05-01T13:44:26;101025.91;;;18.54;52.64
9325;BME280;4701;51.566;6.776;2023-05-01T13:47:28;101033.19;;;18.50;52.64
9325;BME280;4701;51.566;6.776;2023-05-01T13:50:30;101031.06;;;18.47;53.68
9325;BME280;4701;51.566;6.776;2023-05-01T13:53:33;101035.56;;;18.43;53.35
9325;BME280;4701;51.566;6.776;2023-05-01T13:56:36;101039.78;;;18.41;53.48
9325;BME280;4701;51.566;6.776;2023-05-01T13:59:40;101037.44;;;18.34;52.83
9325;BME280;4701;51.566;6.776;2023-05-01T14:02:43;101032.22;;;18.33;52.92
9325;BME280;4701;51.566;6.776;2023-05-01T14:05:46;101036.25;;;18.27;53.21
9325;BME280;4701;51.566;6.776;2023-05-01T14:08:50;101032.47;;;18.23;51.80
9325;BME280;4701;51.566;6.776;2023-05-01T14:11:54;101031.25;;;18.15;51.11
9325;BME280;4701;51.566;6.776;2023-05-01T14:14:56;101031.06;;;18.11;50.50
9325;BME280;4701;51.566;6.776;2023-05-01T14:18:03;101029.22;;;18.07;51.62
9325;BME280;4701;51.566;6.776;2023-05-01T14:21:06;101027.09;;;18.04;51.08
9325;BME280;4701;51.566;6.776;2023-05-01T14:24:09;101021.38;;;18.00;51.91
9325;BME280;4701;51.566;6.776;2023-05-01T14:27:13;101030.56;;;17.96;49.61
9325;BME280;4701;51.566;6.776;2023-05-01T14:30:23;101026.00;;;17.91;49.40
9325;BME280;4701;51.566;6.776;2023-05-01T14:33:25;101029.06;;;17.90;49.88
9325;BME280;4701;51.566;6.776;2023-05-01T14:36:28;101034.88;;;17.88;50.40
9325;BME280;4701;51.566;6.776;2023-05-01T14:39:33;101038.28;;;17.85;50.77
9325;BME280;4701;51.566;6.776;2023-05-01T14:42:36;101055.41;;;17.82;51.00
9325;BME280;4701;51.566;6.776;2023-05-01T14:45:42;101058.47;;;17.81;51.58
9325;BME280;4701;51.566;6.776;2023-05-01T14:48:45;101065.63;;;17.82;52.33
9325;BME280;4701;51.566;6.776;2023-05-01T14:51:47;101068.69;;;17.80;53.40
9325;BME280;4701;51.566;6.776;2023-05-01T14:54:51;101078.41;;;17.77;53.82
9325;BME280;4701;51.566;6.776;2023-05-01T14:57:53;101084.53;;;17.74;54.25
9325;BME280;4701;51.566;6.776;2023-05-01T15:00:55;101084.53;;;17.74;54.59
9325;BME280;4701;51.566;6.776;2023-05-01T15:03:57;101090.13;;;17.69;54.64
9325;BME280;4701;51.566;6.776;2023-05-01T15:06:59;101092.16;;;17.64;54.68
9325;BME280;4701;51.566;6.776;2023-05-01T15:10:02;101102.22;;;17.55;55.24
9325;BME280;4701;51.566;6.776;2023-05-01T15:13:04;101103.75;;;17.47;55.38
9325;BME280;4701;51.566;6.776;2023-05-01T15:16:09;101086.41;;;17.33;55.30
9325;BME280;4701;51.566;6.776;2023-05-01T15:19:11;101092.06;;;17.23;55.50
9325;BME280;4701;51.566;6.776;2023-05-01T15:22:13;101100.50;;;17.13;54.95
9325;BME280;4701;51.566;6.776;2023-05-01T15:25:16;101097.44;;;17.00;55.69
9325;BME280;4701;51.566;6.776;2023-05-01T15:28:18;101107.25;;;16.88;55.66
9325;BME280;4701;51.566;6.776;2023-05-01T15:31:20;101107.72;;;16.76;55.97
9325;BME280;4701;51.566;6.776;2023-05-01T15:34:22;101103.78;;;16.63;56.56
9325;BME280;4701;51.566;6.776;2023-05-01T15:37:24;101101.69;;;16.55;57.28
9325;BME280;4701;51.566;6.776;2023-05-01T15:40:28;101104.81;;;16.49;57.29
9325;BME280;4701;51.566;6.776;2023-05-01T15:43:29;101099.97;;;16.41;57.79
9325;BME280;4701;51.566;6.776;2023-05-01T15:46:31;101101.97;;;16.35;57.77
9325;BME280;4701;51.566;6.776;2023-05-01T15:49:33;101117.81;;;16.24;58.37
9325;BME280;4701;51.566;6.776;2023-05-01T15:52:35;101123.44;;;16.14;58.70
9325;BME280;4701;51.566;6.776;2023-05-01T15:55:38;101127.13;;;16.05;59.13
9325;BME280;4701;51.566;6.776;2023-05-01T15:58:40;101134.38;;;15.96;59.41
9325;BME280;4701;51.566;6.776;2023-05-01T16:01:42;101158.66;;;15.88;60.10
9325;BME280;4701;51.566;6.776;2023-05-01T16:04:44;101157.88;;;15.83;61.23
9325;BME280;4701;51.566;6.776;2023-05-01T16:07:52;101154.38;;;15.77;62.16
9325;BME280;4701;51.566;6.776;2023-05-01T16:10:55;101156.38;;;15.72;63.02
9325;BME280;4701;51.566;6.776;2023-05-01T16:13:57;101163.25;;;15.69;63.50
9325;BME280;4701;51.566;6.776;2023-05-01T16:16:59;101157.50;;;15.66;63.96
9325;BME280;4701;51.566;6.776;2023-05-01T16:20:01;101163.59;;;15.63;64.67
9325;BME280;4701;51.566;6.776;2023-05-01T16:23:04;101163.34;;;15.59;65.31
9325;BME280;4701;51.566;6.776;2023-05-01T16:26:09;101156.22;;;15.58;66.28
9325;BME280;4701;51.566;6.776;2023-05-01T16:29:11;101152.13;;;15.56;66.73
9325;BME280;4701;51.566;6.776;2023-05-01T16:32:15;101148.28;;;15.57;67.28
9325;BME280;4701;51.566;6.776;2023-05-01T16:35:19;101159.28;;;15.57;68.06
9325;BME280;4701;51.566;6.776;2023-05-01T16:38:25;101161.19;;;15.56;69.00
9325;BME280;4701;51.566;6.776;2023-05-01T16:41:28;101162.81;;;15.57;69.26
9325;BME280;4701;51.566;6.776;2023-05-01T16:44:30;101154.28;;;15.59;69.49
9325;BME280;4701;51.566;6.776;2023-05-01T16:47:32;101155.09;;;15.59;69.77
9325;BME280;4701;51.566;6.776;2023-05-01T16:50:36;101162.53;;;15.59;69.70
9325;BME280;4701;51.566;6.776;2023-05-01T16:53:39;101164.16;;;15.60;69.84
9325;BME280;4701;51.566;6.776;2023-05-01T16:56:42;101168.03;;;15.59;70.23
9325;BME280;4701;51.566;6.776;2023-05-01T16:59:44;101174.06;;;15.61;70.29
9325;BME280;4701;51.566;6.776;2023-05-01T17:02:46;101186.13;;;15.65;71.58
9325;BME280;4701;51.566;6.776;2023-05-01T17:05:51;101186.91;;;15.65;71.56
9325;BME280;4701;51.566;6.776;2023-05-01T17:08:53;101187.72;;;15.66;71.09
9325;BME280;4701;51.566;6.776;2023-05-01T17:11:56;101195.16;;;15.65;71.15
9325;BME280;4701;51.566;6.776;2023-05-01T17:14:58;101199.53;;;15.66;71.72
9325;BME280;4701;51.566;6.776;2023-05-01T17:18:00;101202.59;;;15.65;71.47
9325;BME280;4701;51.566;6.776;2023-05-01T17:21:02;101204.53;;;15.64;71.78
9325;BME280;4701;51.566;6.776;2023-05-01T17:24:07;101198.50;;;15.62;71.63
9325;BME280;4701;51.566;6.776;2023-05-01T17:27:10;101202.06;;;15.63;71.56
9325;BME280;4701;51.566;6.776;2023-05-01T17:30:13;101202.06;;;15.63;72.19
9325;BME280;4701;51.566;6.776;2023-05-01T17:33:15;101202.88;;;15.63;72.11
9325;BME280;4701;51.566;6.776;2023-05-01T17:36:17;101204.81;;;15.63;72.62
9325;BME280;4701;51.566;6.776;2023-05-01T17:39:20;101215.81;;;15.63;72.89
9325;BME280;4701;51.566;6.776;2023-05-01T17:42:26;101223.50;;;15.61;72.44
9325;BME280;4701;51.566;6.776;2023-05-01T17:45:28;101227.38;;;15.60;72.65
9325;BME280;4701;51.566;6.776;2023-05-01T17:48:30;101222.16;;;15.58;72.34
9325;BME280;4701;51.566;6.776;2023-05-01T17:51:33;101224.38;;;15.56;72.24
9325;BME280;4701;51.566;6.776;2023-05-01T17:54:35;101238.13;;;15.56;72.16
9325;BME280;4701;51.566;6.776;2023-05-01T17:57:39;101229.34;;;15.54;71.54
9325;BME280;4701;51.566;6.776;2023-05-01T18:00:41;101238.94;;;15.51;71.37
9325;BME280;4701;51.566;6.776;2023-05-01T18:03:45;101236.75;;;15.48;71.39
9325;BME280;4701;51.566;6.776;2023-05-01T18:06:54;101235.16;;;15.47;71.20
9325;BME280;4701;51.566;6.776;2023-05-01T18:09:57;101240.94;;;15.46;71.45
9325;BME280;4701;51.566;6.776;2023-05-01T18:13:00;101243.13;;;15.44;71.59
9325;BME280;4701;51.566;6.776;2023-05-01T18:16:02;101235.16;;;15.42;71.38
9325;BME280;4701;51.566;6.776;2023-05-01T18:19:04;101237.38;;;15.40;71.39
9325;BME280;4701;51.566;6.776;2023-05-01T18:22:06;101240.72;;;15.37;71.48
9325;BME280;4701;51.566;6.776;2023-05-01T18:25:08;101238.53;;;15.34;71.45
9325;BME280;4701;51.566;6.776;2023-05-01T18:28:12;101248.97;;;15.32;71.35
9325;BME280;4701;51.566;6.776;2023-05-01T18:31:16;101251.50;;;15.29;71.38
9325;BME280;4701;51.566;6.776;2023-05-01T18:34:18;101253.69;;;15.27;71.21
9325;BME280;4701;51.566;6.776;2023-05-01T18:37:20;101246.84;;;15.24;71.66
9325;BME280;4701;51.566;6.776;2023-05-01T18:40:24;101266.06;;;15.24;72.28
9325;BME280;4701;51.566;6.776;2023-05-01T18:43:27;101258.09;;;15.23;72.60
9325;BME280;4701;51.566;6.776;2023-05-01T18:46:29;101262.81;;;15.22;72.81
9325;BME280;4701;51.566;6.776;2023-05-01T18:49:31;101266.66;;;15.21;73.30
9325;BME280;4701;51.566;6.776;2023-05-01T18:52:34;101270.78;;;15.19;73.48
9325;BME280;4701;51.566;6.776;2023-05-01T18:55:36;101270.22;;;15.17;73.74
9325;BME280;4701;51.566;6.776;2023-05-01T18:58:40;101274.91;;;15.16;73.90
9325;BME280;4701;51.566;6.776;2023-05-01T19:01:42;101276.00;;;15.15;74.63
9325;BME280;4701;51.566;6.776;2023-05-01T19:04:43;101282.09;;;15.12;74.94
9325;BME280;4701;51.566;6.776;2023-05-01T19:07:46;101294.16;;;15.11;75.01
9325;BME280;4701;51.566;6.776;2023-05-01T19:10:51;101287.31;;;15.08;74.63
9325;BME280;4701;51.566;6.776;2023-05-01T19:13:55;101288.69;;;15.06;74.85
9325;BME280;4701;51.566;6.776;2023-05-01T19:16:56;101299.97;;;15.04;74.90
9325;BME280;4701;51.566;6.776;2023-05-01T19:19:58;101304.91;;;15.02;74.84
9325;BME280;4701;51.566;6.776;2023-05-01T19:23:00;101301.91;;;14.99;75.01
9325;BME280;4701;51.566;6.776;2023-05-01T19:26:05;101305.75;;;14.98;74.89
9325;BME280;4701;51.566;6.776;2023-05-01T19:29:08;101307.16;;;14.95;75.04
9325;BME280;4701;51.566;6.776;2023-05-01T19:32:11;101321.16;;;14.94;75.08
9325;BME280;4701;51.566;6.776;2023-05-01T19:35:12;101315.13;;;14.92;74.79
9325;BME280;4701;51.566;6.776;2023-05-01T19:38:15;101321.72;;;14.91;75.33
9325;BME280;4701;51.566;6.776;2023-05-01T19:41:16;101323.91;;;14.89;74.96
9325;BME280;4701;51.566;6.776;2023-05-01T19:44:20;101319.00;;;14.86;75.03
9325;BME280;4701;51.566;6.776;2023-05-01T19:47:21;101332.19;;;14.84;74.57
9325;BME280;4701;51.566;6.776;2023-05-01T19:50:23;101323.66;;;14.80;74.79
9325;BME280;4701;51.566;6.776;2023-05-01T19:53:25;101327.00;;;14.77;74.89
9325;BME280;4701;51.566;6.776;2023-05-01T19:56:27;101326.72;;;14.73;74.99
9325;BME280;4701;51.566;6.776;2023-05-01T19:59:31;101338.78;;;14.72;75.47
9325;BME280;4701;51.566;6.776;2023-05-01T20:02:32;101339.38;;;14.69;76.10
9325;BME280;4701;51.566;6.776;2023-05-01T20:05:34;101346.50;;;14.65;76.39
9325;BME280;4701;51.566;6.776;2023-05-01T20:08:45;101344.88;;;14.59;76.47
9325;BME280;4701;51.566;6.776;2023-05-01T20:11:47;101344.34;;;14.57;76.29
9325;BME280;4701;51.566;6.776;2023-05-01T20:14:51;101348.75;;;14.53;76.50
9325;BME280;4701;51.566;6.776;2023-05-01T20:21:33;101354.25;;;14.43;76.45
9325;BME280;4701;51.566;6.776;2023-05-01T20:24:36;101358.63;;;14.39;76.57
9325;BME280;4701;51.566;6.776;2023-05-01T20:27:38;101366.84;;;14.34;76.40
9325;BME280;4701;51.566;6.776;2023-05-01T20:30:56;101362.47;;;14.28;76.52
9325;BME280;4701;51.566;6.776;2023-05-01T20:33:59;101370.69;;;14.23;76.79
9325;BME280;4701;51.566;6.776;2023-05-01T20:37:01;101374.53;;;14.17;76.62
9325;BME280;4701;51.566;6.776;2023-05-01T20:40:04;101386.03;;;14.14;76.49
9325;BME280;4701;51.566;6.776;2023-05-01T20:43:06;101375.63;;;14.06;76.61
9325;BME280;4701;51.566;6.776;2023-05-01T20:46:09;101383.88;;;14.00;76.22
9325;BME280;4701;51.566;6.776;2023-05-01T20:49:11;101392.06;;;13.95;76.06
9325;BME280;4701;51.566;6.776;2023-05-01T20:52:13;101395.09;;;13.89;76.09
9325;BME280;4701;51.566;6.776;2023-05-01T20:55:15;101398.09;;;13.82;76.09
9325;BME280;4701;51.566;6.776;2023-05-01T20:58:17;101401.66;;;13.78;76.25
